Latest Weather Observations for Katanning RS

IDW60801

Issued at 2:32 pm WST Thursday 28 July 2016 (issued every 30 minutes, with the page automatically refreshed every 10 minutes)

About weather observations | Map of weather stations | Latest weather observations for WA | Other Formats
Station Details ID: 010916 Name: KATANNING Lat: -33.69 Lon: 117.61 Height: 320.0 m
Data from the previous 72 hours. | See also: Recent months at Katanning RS
Date/Time
WST
Temp
°C
App
Temp
°C
Dew
Point
°C
Rel
Hum
%
Delta-T
°C
Wind Press
QNH
hPa
Press
MSL
hPa
Rain since
9am
mm
Dir  Spd
km/h
Gust
km/h
Spd
kts
Gust
kts
28/02:30pm 16.0 13.4 6.2 52 4.8 W 9 13 5 7 1020.0 1020.2 0.0
28/02:00pm 16.2 14.2 6.9 54 4.7 W 7 13 4 7 1020.1 1020.3 0.0
28/01:30pm 16.0 14.0 7.2 56 4.4 W 7 17 4 9 1020.3 1020.5 0.0
28/01:00pm 15.5 13.7 8.0 61 3.8 WNW 7 13 4 7 1020.6 1020.8 0.0
28/12:30pm 15.1 13.3 8.1 63 3.6 NW 7 11 4 6 1020.9 1021.1 0.0
28/12:00pm 14.6 12.6 8.8 68 3.0 W 9 13 5 7 1021.5 1021.7 0.0
28/11:30am 13.5 12.1 8.8 73 2.4 W 6 7 3 4 1021.9 1022.2 0.0
28/11:00am 13.2 12.7 9.3 77 2.0 NW 2 6 1 3 1022.3 1022.5 0.0
28/10:30am 12.2 10.7 9.0 81 1.6 N 7 9 4 5 1022.5 1022.7 0.0
28/10:00am 11.7 10.3 8.7 82 1.5 N 6 9 3 5 1022.7 1022.9 0.0
28/09:30am 11.3 9.8 8.5 83 1.4 N 6 7 3 4 1023.0 1023.2 0.0
28/09:00am 10.3 9.2 8.4 88 0.9 N 4 6 2 3 1023.0 1023.2 0.0
28/08:30am 9.4 8.9 7.8 90 0.8 CALM 0 0 0 0 1022.9 1023.1 0.0
28/08:00am 8.0 7.2 6.5 90 0.7 CALM 0 0 0 0 1022.8 1023.0 0.0
28/07:30am 7.5 6.5 5.8 89 0.8 CALM 0 0 0 0 1022.6 1022.8 0.0
28/07:00am 7.4 6.5 5.9 90 0.7 CALM 0 0 0 0 1022.5 1022.7 0.0
28/06:30am 7.3 5.6 5.8 90 0.7 NW 4 4 2 2 1022.5 1022.7 0.0
28/06:00am 6.5 5.3 4.8 89 0.8 CALM 0 0 0 0 1022.1 1022.4 0.0
28/05:30am 7.7 5.7 6.2 90 0.7 WNW 6 7 3 4 1022.1 1022.4 0.0
28/05:00am 6.7 5.2 5.0 89 0.8 NNE 2 4 1 2 1021.9 1022.2 0.0
28/04:30am 6.4 5.2 4.7 89 0.8 CALM 0 0 0 0 1022.4 1022.6 0.0
28/04:00am 7.3 6.3 5.6 89 0.8 CALM 0 0 0 0 1022.5 1022.7 0.0
28/03:30am 7.3 6.3 5.6 89 0.8 CALM 0 2 0 1 1022.6 1022.8 0.0
28/03:00am 7.5 5.4 5.6 88 0.9 W 6 7 3 4 1022.4 1022.6 0.0
28/02:30am 8.0 6.8 6.3 89 0.8 N 2 4 1 2 1022.3 1022.5 0.0
28/02:00am 8.1 6.4 6.1 87 0.9 N 4 7 2 4 1022.9 1023.1 0.0
28/01:30am 8.5 6.6 6.5 87 0.9 N 6 6 3 3 1023.0 1023.2 0.0
28/01:00am 8.9 7.8 6.9 87 0.9 NNE 2 6 1 3 1022.8 1023.0 0.0
28/12:30am 8.8 7.3 6.6 86 1.0 NNE 4 6 2 3 1023.1 1023.3 0.0
28/12:00am 9.5 8.9 7.3 86 1.1 CALM 0 0 0 0 1023.6 1023.8 0.0
 
Date/Time
WST
Temp
°C
App
Temp
°C
Dew
Point
°C
Rel
Hum
%
Delta-T
°C
Wind Press
QNH
hPa
Press
MSL
hPa
Rain since
9am
mm
Dir  Spd
km/h
Gust
km/h
Spd
kts
Gust
kts
27/11:30pm 8.8 8.0 6.4 85 1.1 CALM 0 0 0 0 1024.1 1024.3 0.0
27/11:00pm 9.9 8.9 7.2 83 1.3 NNW 2 4 1 2 1024.3 1024.5 0.0
27/10:30pm 9.6 8.0 6.5 81 1.5 N 4 6 2 3 1024.7 1025.0 0.0
27/10:00pm 9.9 8.9 7.2 83 1.3 NNW 2 6 1 3 1024.9 1025.2 0.0
27/09:30pm 9.9 9.2 7.0 82 1.4 CALM 0 0 0 0 1024.7 1025.0 0.0
27/09:00pm 10.5 9.1 7.4 81 1.5 NW 4 6 2 3 1025.0 1025.3 0.0
27/08:30pm 10.9 10.4 7.8 81 1.5 CALM 0 0 0 0 1024.9 1025.2 0.0
27/08:00pm 11.0 9.8 7.9 81 1.5 NW 4 7 2 4 1024.9 1025.2 0.0
27/07:30pm 11.0 10.1 7.9 81 1.5 N 2 6 1 3 1024.9 1025.2 0.0
27/07:00pm 10.8 9.4 7.3 79 1.7 N 4 6 2 3 1025.1 1025.4 0.0
27/06:30pm 11.8 10.6 7.9 77 1.9 N 4 6 2 3 1024.5 1024.8 0.0
27/06:00pm 12.2 11.1 8.3 77 1.9 NNE 4 6 2 3 1024.2 1024.4 0.0
27/05:30pm 11.7 10.1 8.0 78 1.8 NE 6 7 3 4 1024.2 1024.4 0.0
27/05:00pm 12.1 10.5 8.2 77 1.9 NNE 6 7 3 4 1024.2 1024.4 0.0
27/04:30pm 13.1 11.1 8.6 74 2.3 N 9 11 5 6 1024.5 1024.8 0.0
27/04:00pm 13.7 12.0 8.5 71 2.6 N 7 11 4 6 1024.4 1024.7 0.0
27/03:30pm 14.0 12.0 8.6 70 2.8 N 9 11 5 6 1024.3 1024.5 0.0
27/03:00pm 14.2 11.7 8.4 68 2.9 N 11 17 6 9 1024.1 1024.3 0.0
27/02:30pm 14.5 12.0 8.2 66 3.2 N 11 19 6 10 1024.4 1024.7 0.0
27/02:00pm 14.8 11.6 8.3 65 3.3 N 15 20 8 11 1024.7 1025.0 0.0
27/01:30pm 14.5 11.2 8.2 66 3.2 N 15 20 8 11 1024.8 1025.1 0.0
27/01:00pm 14.6 11.5 9.0 69 2.9 N 15 22 8 12 1025.3 1025.6 0.0
27/12:30pm 14.6 11.5 8.8 68 3.0 N 15 20 8 11 1025.3 1025.6 0.0
27/12:00pm 14.4 10.4 8.4 67 3.0 N 19 24 10 13 1026.1 1026.3 0.0
27/11:30am 14.0 9.9 7.8 66 3.1 N 19 26 10 14 1026.8 1027.0 0.0
27/11:00am 13.6 10.3 8.0 69 2.8 NNE 15 24 8 13 1027.1 1027.4 0.0
27/10:30am 13.2 10.7 8.3 72 2.5 N 11 17 6 9 1027.7 1028.0 0.0
27/10:00am 12.5 10.8 8.2 75 2.1 N 7 9 4 5 1027.7 1028.0 0.0
27/09:30am 11.6 9.7 7.7 77 1.9 NNW 7 9 4 5 1028.2 1028.5 0.0
27/09:00am 10.5 9.3 7.9 84 1.3 NNE 4 6 2 3 1028.3 1028.6 0.0
27/08:30am 9.5 8.6 7.8 89 0.8 N 2 6 1 3 1028.1 1028.4 0.0
27/08:00am 8.5 6.5 7.0 90 0.7 NW 7 9 4 5 1028.0 1028.3 0.0
27/07:30am 7.8 5.6 6.4 91 0.7 WNW 7 9 4 5 1027.9 1028.2 0.0
27/07:00am 6.8 4.6 5.3 90 0.7 NW 6 7 3 4 1027.7 1028.0 0.0
27/06:30am 6.9 5.4 5.2 89 0.8 N 2 6 1 3 1027.2 1027.5 0.0
27/06:00am 6.9 4.7 5.2 89 0.8 NNW 6 7 3 4 1027.1 1027.4 0.0
27/05:30am 7.5 6.1 5.6 88 0.9 N 2 6 1 3 1027.1 1027.4 0.0
27/05:00am 7.5 6.5 5.5 87 0.9 CALM 0 0 0 0 1027.0 1027.2 0.0
27/04:30am 9.0 7.2 7.0 87 1.0 NW 6 7 3 4 1027.2 1027.5 0.0
27/04:00am 9.2 7.4 7.3 88 0.9 NNW 6 7 3 4 1027.5 1027.8 0.0
27/03:30am 8.6 6.7 6.6 87 0.9 NW 6 7 3 4 1027.5 1027.8 0.0
27/03:00am 9.3 8.6 6.9 85 1.1 CALM 0 0 0 0 1027.3 1027.6 0.0
27/02:30am 10.1 9.6 7.7 85 1.2 CALM 0 4 0 2 1027.1 1027.4 0.0
27/02:00am 9.9 9.3 7.3 84 1.2 CALM 0 0 0 0 1027.2 1027.5 0.0
27/01:30am 10.4 9.8 7.6 83 1.4 CALM 0 0 0 0 1027.1 1027.4 0.0
27/01:00am 10.9 9.3 8.0 82 1.4 SSW 6 7 3 4 1027.5 1027.8 0.0
27/12:30am 11.3 9.8 8.3 82 1.5 SSW 6 9 3 5 1027.6 1027.9 0.0
27/12:00am 11.3 9.6 8.2 81 1.5 SW 7 9 4 5 1027.7 1028.0 0.0
 
Date/Time
WST
Temp
°C
App
Temp
°C
Dew
Point
°C
Rel
Hum
%
Delta-T
°C
Wind Press
QNH
hPa
Press
MSL
hPa
Rain since
9am
mm
Dir  Spd
km/h
Gust
km/h
Spd
kts
Gust
kts
26/11:30pm 11.4 9.7 8.3 81 1.5 SW 7 9 4 5 1028.0 1028.3 0.0
26/11:00pm 11.6 9.9 8.3 80 1.6 WSW 7 9 4 5 1028.1 1028.4 0.0
26/10:30pm 11.6 9.5 8.3 80 1.7 WSW 9 11 5 6 1028.1 1028.4 0.0
26/10:00pm 11.8 9.8 8.5 80 1.6 W 9 9 5 5 1028.1 1028.4 0.0
26/09:30pm 11.7 10.1 8.6 81 1.6 W 7 9 4 5 1028.2 1028.5 0.0
26/09:00pm 11.9 10.4 8.4 79 1.7 WSW 6 7 3 4 1028.2 1028.5 0.0
26/08:30pm 11.9 10.4 8.4 79 1.8 NW 6 7 3 4 1028.0 1028.3 0.0
26/08:00pm 12.3 11.2 8.4 77 2.0 WNW 4 6 2 3 1027.8 1028.1 0.0
26/07:30pm 12.4 10.7 8.3 76 2.1 WNW 7 7 4 4 1027.6 1027.9 0.0
26/07:00pm 12.1 11.3 8.2 77 1.9 WNW 2 4 1 2 1027.3 1027.6 0.0
26/06:30pm 12.1 10.6 8.4 78 1.9 W 6 9 3 5 1027.2 1027.5 0.0
26/06:00pm 11.3 9.5 7.0 75 2.1 WNW 6 6 3 3 1027.1 1027.4 0.0
26/05:30pm 12.4 11.0 7.3 71 2.5 WSW 4 6 2 3 1026.9 1027.1 0.0
26/05:00pm 13.7 11.8 7.5 66 3.1 WSW 7 9 4 5 1026.7 1026.9 0.0
26/04:30pm 14.5 12.7 7.8 64 3.4 WSW 7 11 4 6 1026.7 1026.9 0.0
26/04:00pm 14.6 12.9 8.3 66 3.2 WSW 7 13 4 7 1026.7 1026.9 0.0
26/03:30pm 14.1 11.9 7.9 66 3.1 SW 9 13 5 7 1026.7 1026.9 0.0
26/03:00pm 13.8 11.2 7.8 67 3.0 WSW 11 17 6 9 1026.7 1026.9 0.0
26/02:30pm 14.2 11.5 7.3 63 3.4 WSW 11 20 6 11 1026.5 1026.7 0.0
26/02:00pm 13.9 10.4 7.4 65 3.2 SW 15 20 8 11 1026.4 1026.6 0.0
26/01:30pm 13.8 10.1 7.8 67 3.0 SW 17 24 9 13 1026.5 1026.7 0.0
26/01:00pm 14.3 10.3 8.3 67 3.0 WSW 19 28 10 15 1026.6 1026.8 0.0
26/12:30pm 13.4 10.0 7.8 69 2.8 WSW 15 20 8 11 1026.7 1026.9 0.0
26/12:00pm 13.3 10.1 8.4 72 2.5 SW 15 22 8 12 1027.1 1027.4 0.0
26/11:30am 12.6 9.3 7.9 73 2.3 SW 15 20 8 11 1027.5 1027.8 0.0
26/11:00am 12.0 8.7 8.1 77 1.9 SW 15 22 8 12 1027.7 1028.0 0.0
26/10:30am 11.7 8.1 8.4 80 1.7 WSW 17 22 9 12 1028.0 1028.3 0.0
26/10:00am 11.1 8.2 8.1 82 1.5 WSW 13 17 7 9 1027.9 1028.2 0.0
26/09:30am 10.5 8.1 8.8 89 0.9 WSW 11 13 6 7 1028.1 1028.4 0.0
26/09:00am 9.6 6.7 8.2 91 0.7 W 13 17 7 9 1027.8 1028.1 0.2
26/08:30am 7.9 5.0 6.5 91 0.7 W 11 15 6 8 1027.6 1027.9 0.2
26/08:00am 7.6 4.7 6.4 92 0.6 W 11 15 6 8 1027.1 1027.4 0.2
26/07:30am 6.7 4.3 5.3 91 0.6 WNW 7 13 4 7 1026.8 1027.0 0.2
26/07:00am 7.2 4.2 5.8 91 0.6 WNW 11 17 6 9 1026.7 1026.9 0.2
26/06:30am 7.3 3.5 5.9 91 0.6 W 15 22 8 12 1026.5 1026.7 0.2
26/06:00am 7.5 3.8 6.1 91 0.6 W 15 20 8 11 1026.3 1026.5 0.0
26/05:30am 7.7 4.4 6.3 91 0.7 W 13 19 7 10 1026.3 1026.5 0.0
26/05:00am 7.8 4.1 6.4 91 0.6 W 15 22 8 12 1025.7 1025.9 0.0
26/04:30am 8.0 4.4 6.6 91 0.7 W 15 19 8 10 1025.9 1026.1 0.0
26/04:00am 8.1 4.9 6.7 91 0.7 W 13 19 7 10 1025.8 1026.0 0.0
26/03:30am 8.0 4.7 6.6 91 0.7 W 13 17 7 9 1025.8 1026.0 0.0
26/03:00am 8.0 4.4 6.6 91 0.7 W 15 22 8 12 1025.7 1025.9 0.0
26/02:30am 8.1 4.9 6.7 91 0.7 WNW 13 19 7 10 1025.8 1026.0 0.0
26/02:00am 8.1 4.8 6.6 90 0.7 W 13 17 7 9 1026.0 1026.2 0.0
26/01:30am 7.9 4.6 6.2 89 0.8 W 13 19 7 10 1026.1 1026.3 0.0
26/01:00am 8.1 4.4 6.4 89 0.8 W 15 20 8 11 1026.0 1026.2 0.0
26/12:30am 8.1 4.8 6.4 89 0.8 WNW 13 17 7 9 1026.0 1026.2 0.0
26/12:00am 7.9 4.9 6.0 88 0.9 WNW 11 15 6 8 1026.4 1026.6 0.0
 
Date/Time
WST
Temp
°C
App
Temp
°C
Dew
Point
°C
Rel
Hum
%
Delta-T
°C
Wind Press
QNH
hPa
Press
MSL
hPa
Rain since
9am
mm
Dir  Spd
km/h
Gust
km/h
Spd
kts
Gust
kts
25/11:30pm 7.9 4.5 5.9 87 0.9 WNW 13 17 7 9 1026.5 1026.7 0.0
25/11:00pm 7.0 4.1 4.8 86 1.0 WNW 9 11 5 6 1026.6 1026.8 0.0
25/10:30pm 7.6 4.5 5.4 86 1.0 NW 11 13 6 7 1026.5 1026.7 0.0
25/10:00pm 7.7 4.6 5.5 86 1.0 NW 11 15 6 8 1026.9 1027.1 0.0
25/09:30pm 7.7 5.3 5.3 85 1.1 WNW 7 9 4 5 1027.0 1027.2 0.0
25/09:00pm 8.4 6.1 5.5 82 1.3 WNW 7 9 4 5 1027.1 1027.4 0.0
25/08:30pm 9.5 6.5 6.0 79 1.6 W 11 17 6 9 1027.1 1027.4 0.0
25/08:00pm 10.1 7.6 6.4 78 1.7 WNW 9 15 5 8 1026.6 1026.8 0.0
25/07:30pm 9.8 6.9 6.3 79 1.7 NW 11 15 6 8 1026.3 1026.5 0.0
25/07:00pm 10.3 7.4 6.5 77 1.8 NW 11 15 6 8 1025.9 1026.1 0.0
25/06:30pm 10.1 7.5 6.1 76 1.9 WNW 9 15 5 8 1025.9 1026.1 0.0
25/06:00pm 10.2 8.0 6.0 75 2.0 WNW 7 9 4 5 1025.7 1025.9 0.0
25/05:30pm 10.9 8.6 5.9 71 2.4 WNW 7 9 4 5 1025.6 1025.8 0.0
25/05:00pm 12.4 10.5 6.7 68 2.8 WNW 6 9 3 5 1025.6 1025.8 0.0
25/04:30pm 12.7 10.2 6.7 67 2.9 W 9 13 5 7 1025.8 1026.0 0.0
25/04:00pm 13.6 9.8 5.7 59 3.8 WNW 15 20 8 11 1025.6 1025.8 0.0
25/03:30pm 14.1 9.9 5.7 57 4.0 W 17 22 9 12 1025.4 1025.7 0.0
25/03:00pm 13.3 10.8 6.4 63 3.3 SW 9 13 5 7 1025.4 1025.7 0.0

Other Formats:

Comma delimited format used in spreadsheet applications
http://www.bom.gov.au/fwo/IDW60801/IDW60801.94641.axf

JavaScript Object Notation format (JSON) in row-major order
http://www.bom.gov.au/fwo/IDW60801/IDW60801.94641.json